Time;durP1;ratioP1;P1;durP2;ratioP2;P2;SDS_P1;SDS_P2;PMS_P1;PMS_P2;Temp;Humidity;BMP_temperature;BMP_pressure;BME280_temperature;BME280_humidity;BME280_pressure;Samples;Min_cycle;Max_cycle;Signal;HPM_P1;HPM_P2
2022/03/20 00:01:55;;;;;;;14.67;8.60;;;-1.90;85.30;;;;;;4193316;28;20269;-59
2022/03/20 00:03:56;;;;;;;17.13;8.80;;;-1.90;87.00;;;;;;4193045;28;20272;-65
2022/03/20 00:05:57;;;;;;;20.03;9.03;;;-2.00;88.00;;;;;;4193739;28;20323;-59
2022/03/20 00:07:59;;;;;;;22.13;10.53;;;-2.00;88.50;;;;;;4193041;28;20311;-56
2022/03/20 00:10:02;;;;;;;22.97;10.47;;;-2.00;88.60;;;;;;4185903;28;20770;-50
2022/03/20 00:12:05;;;;;;;33.80;11.53;;;-2.10;89.10;;;;;;4175565;28;20347;-56
2022/03/20 00:14:06;;;;;;;22.20;10.27;;;-2.20;89.40;;;;;;4177223;28;20746;-54
2022/03/20 00:16:07;;;;;;;23.57;11.07;;;-2.20;89.20;;;;;;4175785;28;20274;-52
2022/03/20 00:18:13;;;;;;;21.40;8.97;;;-2.10;89.50;;;;;;4177306;28;20693;-53
2022/03/20 00:20:15;;;;;;;20.13;10.40;;;-2.10;89.50;;;;;;4175856;28;20774;-56
2022/03/20 00:22:16;;;;;;;19.53;9.80;;;-2.10;90.20;;;;;;4176922;28;20317;-52
2022/03/20 00:24:20;;;;;;;18.17;8.73;;;-2.20;90.20;;;;;;4189613;28;20285;-52
2022/03/20 00:26:21;;;;;;;19.90;8.87;;;-2.20;90.10;;;;;;4193503;28;20346;-54
2022/03/20 00:28:24;;;;;;;15.13;9.47;;;-2.20;90.30;;;;;;4192283;28;20339;-54
2022/03/20 00:30:25;;;;;;;22.70;10.57;;;-2.20;90.10;;;;;;4185792;28;20278;-52
2022/03/20 00:32:27;;;;;;;21.30;10.13;;;-2.20;89.80;;;;;;4175093;28;20751;-52
2022/03/20 00:34:28;;;;;;;24.53;12.23;;;-2.20;89.20;;;;;;4185931;28;20289;-50
2022/03/20 00:36:30;;;;;;;28.50;12.23;;;-2.30;90.20;;;;;;4192586;28;20386;-47
2022/03/20 00:38:31;;;;;;;26.03;11.50;;;-2.30;90.40;;;;;;4189303;28;20282;-53
2022/03/20 00:40:32;;;;;;;21.53;11.67;;;-2.40;90.70;;;;;;4176641;28;20301;-55
2022/03/20 00:42:33;;;;;;;28.53;12.13;;;-2.50;90.40;;;;;;4176141;28;20266;-50
2022/03/20 00:44:34;;;;;;;24.93;12.03;;;-2.40;90.60;;;;;;4176577;28;20770;-61
2022/03/20 00:46:36;;;;;;;27.63;11.70;;;-2.50;90.80;;;;;;4175570;28;20273;-57
2022/03/20 00:48:37;;;;;;;24.20;10.57;;;-2.50;90.80;;;;;;4177007;28;21134;-57
2022/03/20 00:50:38;;;;;;;26.10;11.50;;;-2.50;90.90;;;;;;4191818;28;20297;-56
2022/03/20 00:52:39;;;;;;;24.03;11.77;;;-2.50;91.00;;;;;;4208151;28;20284;-61
2022/03/20 00:54:40;;;;;;;26.20;11.43;;;-2.60;91.10;;;;;;4191610;28;20664;-57
2022/03/20 00:56:42;;;;;;;32.77;11.93;;;-2.60;91.90;;;;;;4191912;28;20334;-55
2022/03/20 00:58:43;;;;;;;30.20;13.93;;;-2.70;92.00;;;;;;4191814;28;20287;-56
2022/03/20 01:00:44;;;;;;;27.50;12.23;;;-2.80;92.10;;;;;;4177748;28;20336;-48
2022/03/20 01:02:46;;;;;;;30.50;14.53;;;-2.80;92.20;;;;;;4158588;28;20313;-51
2022/03/20 01:04:47;;;;;;;29.97;13.13;;;-2.80;92.40;;;;;;4159833;28;20308;-48
2022/03/20 01:06:49;;;;;;;30.35;14.48;;;-2.90;92.70;;;;;;4159337;28;20283;-56
2022/03/20 01:08:50;;;;;;;34.03;16.80;;;-2.90;93.00;;;;;;4157951;28;20030;-54
2022/03/20 01:10:51;;;;;;;38.63;16.73;;;-3.00;93.30;;;;;;4159818;28;20286;-55
2022/03/20 01:12:52;;;;;;;32.10;15.77;;;-3.00;93.60;;;;;;4163282;28;20273;-53
2022/03/20 01:14:54;;;;;;;29.90;15.40;;;-3.10;93.60;;;;;;4175927;28;20270;-55
2022/03/20 01:16:56;;;;;;;37.87;15.87;;;-3.10;94.10;;;;;;4175192;28;20300;-59
2022/03/20 01:18:57;;;;;;;33.25;15.90;;;-3.10;94.30;;;;;;4176308;28;20736;-49
2022/03/20 01:20:58;;;;;;;33.00;15.07;;;-3.20;94.40;;;;;;4174852;28;20060;-56
2022/03/20 01:22:59;;;;;;;30.17;14.57;;;-3.20;94.60;;;;;;4175969;28;20823;-55
2022/03/20 01:25:00;;;;;;;34.97;14.65;;;-3.20;95.10;;;;;;4175043;28;20312;-50
2022/03/20 01:27:02;;;;;;;31.57;13.73;;;-3.20;95.00;;;;;;4176722;28;20083;-48
2022/03/20 01:29:07;;;;;;;29.23;14.87;;;-3.20;94.90;;;;;;4175357;28;20262;-54
2022/03/20 01:31:09;;;;;;;36.50;16.55;;;-3.20;95.10;;;;;;4176512;28;20258;-54
2022/03/20 01:33:10;;;;;;;43.45;18.63;;;-3.30;95.10;;;;;;4174392;28;20033;-52
2022/03/20 01:35:11;;;;;;;42.20;16.83;;;-3.30;95.70;;;;;;4175881;28;20041;-52
2022/03/20 01:37:13;;;;;;;48.23;17.73;;;-3.30;95.70;;;;;;4175953;28;20266;-52
2022/03/20 01:39:15;;;;;;;42.20;18.23;;;-3.30;95.90;;;;;;4175407;28;20286;-50
2022/03/20 01:41:16;;;;;;;44.35;21.90;;;-3.30;96.00;;;;;;4175555;28;20103;-52
2022/03/20 01:43:17;;;;;;;47.83;20.63;;;-3.30;96.70;;;;;;4174637;28;20843;-53
2022/03/20 01:45:20;;;;;;;27.42;13.65;;;-3.40;97.10;;;;;;4175343;28;20270;-54
2022/03/20 01:47:23;;;;;;;31.30;15.50;;;-3.40;97.10;;;;;;4175089;28;20033;-53
2022/03/20 01:49:25;;;;;;;29.27;14.43;;;-3.40;97.20;;;;;;4175516;28;20519;-51
2022/03/20 01:53:46;;;;;;;27.13;13.05;;;-3.30;96.90;;;;;;4189028;28;21125;-59
2022/03/20 01:55:48;;;;;;;28.60;13.38;;;-3.40;97.20;;;;;;4190844;28;20044;-58
2022/03/20 01:57:49;;;;;;;31.60;13.88;;;-3.40;96.80;;;;;;4192252;28;20070;-54
2022/03/20 01:59:51;;;;;;;26.67;12.95;;;-3.30;96.80;;;;;;4191087;28;20101;-55
2022/03/20 02:01:52;;;;;;;31.70;13.75;;;-3.30;97.00;;;;;;4181368;28;20114;-55
2022/03/20 02:03:54;;;;;;;32.95;14.25;;;-3.30;97.30;;;;;;4174434;28;20584;-57
2022/03/20 02:05:55;;;;;;;32.27;14.83;;;-3.30;97.30;;;;;;4175397;28;20049;-54
2022/03/20 02:07:59;;;;;;;28.35;12.98;;;-3.30;97.40;;;;;;4172776;28;20270;-53
2022/03/20 02:10:02;;;;;;;31.10;13.80;;;-3.40;98.00;;;;;;4174837;28;20059;-55
2022/03/20 02:12:04;;;;;;;30.48;12.50;;;-3.50;97.90;;;;;;4173274;28;20071;-56
2022/03/20 02:14:06;;;;;;;26.88;13.90;;;-3.50;98.30;;;;;;4174455;28;20083;-56
2022/03/20 02:16:07;;;;;;;25.27;12.88;;;-3.50;98.40;;;;;;4174226;28;20048;-53
2022/03/20 02:18:10;;;;;;;28.80;13.52;;;-3.60;98.40;;;;;;4183280;28;20078;-57
2022/03/20 02:20:12;;;;;;;30.02;12.82;;;-3.60;98.70;;;;;;4190867;28;20028;-50
2022/03/20 02:22:13;;;;;;;28.33;13.27;;;-3.70;98.70;;;;;;4191070;28;20024;-55
2022/03/20 02:24:41;;;;;;;33.72;16.30;;;-3.80;98.90;;;;;;4206759;28;20047;-54
2022/03/20 02:26:42;;;;;;;31.83;15.60;;;-3.90;99.90;;;;;;4175692;28;20110;-51
2022/03/20 02:28:43;;;;;;;57.63;23.23;;;-4.00;99.90;;;;;;4174730;28;20086;-53
2022/03/20 02:30:46;;;;;;;62.60;28.52;;;-4.10;99.90;;;;;;4173403;28;20146;-49
2022/03/20 02:32:49;;;;;;;50.33;22.17;;;-4.10;99.90;;;;;;4175003;28;20083;-52
2022/03/20 02:34:51;;;;;;;45.97;19.27;;;-4.10;99.90;;;;;;4173536;28;20079;-50
2022/03/20 02:36:53;;;;;;;38.80;17.45;;;-4.00;99.90;;;;;;4175208;28;20800;-49
2022/03/20 02:38:54;;;;;;;39.88;17.15;;;-4.00;99.90;;;;;;4174200;28;20048;-47
2022/03/20 02:40:56;;;;;;;39.65;16.52;;;-4.00;99.90;;;;;;4182386;28;20593;-48
2022/03/20 02:42:57;;;;;;;38.08;17.42;;;-4.00;99.90;;;;;;4190073;28;20109;-50
2022/03/20 02:45:27;;;;;;;36.92;16.13;;;-4.00;99.90;;;;;;4191240;28;20036;-53
2022/03/20 02:47:33;;;;;;;39.90;16.63;;;-4.00;99.90;;;;;;4188393;28;20044;-55
2022/03/20 02:49:37;;;;;;;33.40;16.00;;;-4.00;99.90;;;;;;4190951;28;20094;-51
2022/03/20 02:51:39;;;;;;;29.83;14.75;;;-4.00;99.90;;;;;;4188029;28;20089;-48
2022/03/20 02:53:40;;;;;;;32.88;14.57;;;-4.10;99.90;;;;;;4190082;28;20037;-49
2022/03/20 02:55:45;;;;;;;32.28;15.15;;;-4.10;99.90;;;;;;4189958;28;20086;-52
2022/03/20 02:57:47;;;;;;;26.80;13.85;;;-4.10;99.90;;;;;;4191589;28;20044;-51
2022/03/20 02:59:48;;;;;;;29.55;14.43;;;-4.10;99.90;;;;;;4190341;28;20033;-50
2022/03/20 03:01:49;;;;;;;34.75;13.52;;;-4.20;99.90;;;;;;4191256;28;20045;-57
2022/03/20 03:03:53;;;;;;;33.92;13.77;;;-4.20;99.90;;;;;;4189866;28;20042;-51
2022/03/20 03:05:56;;;;;;;29.30;13.43;;;-4.30;99.90;;;;;;4188637;28;20029;-54
2022/03/20 03:12:40;;;;;;;28.38;13.55;;;-4.50;99.90;;;;;;4189402;28;20066;-48
2022/03/20 03:17:01;;;;;;;26.65;12.13;;;-4.50;99.90;;;;;;4190108;28;20101;-52
2022/03/20 03:19:02;;;;;;;28.73;12.70;;;-4.40;99.90;;;;;;4190784;28;20033;-52
2022/03/20 03:21:04;;;;;;;24.63;12.00;;;-4.40;99.90;;;;;;4188219;28;20048;-50
2022/03/20 03:23:05;;;;;;;23.05;12.30;;;-4.50;99.90;;;;;;4190112;28;20435;-49
2022/03/20 03:25:07;;;;;;;24.45;12.23;;;-4.50;99.90;;;;;;4190532;28;20089;-51
2022/03/20 03:27:08;;;;;;;25.63;11.70;;;-4.50;99.90;;;;;;4189929;28;20082;-54
2022/03/20 03:29:09;;;;;;;27.00;10.05;;;-4.60;99.90;;;;;;4190383;28;20033;-56
2022/03/20 03:31:11;;;;;;;23.30;10.75;;;-4.70;99.90;;;;;;4189571;28;20037;-50
2022/03/20 03:33:16;;;;;;;25.83;10.63;;;-4.70;99.90;;;;;;4190847;28;20041;-53
2022/03/20 03:37:37;;;;;;;22.80;9.02;;;-4.70;99.90;;;;;;4190928;28;20130;-52
2022/03/20 03:39:38;;;;;;;19.83;10.20;;;-4.70;99.90;;;;;;4189990;28;20040;-50
2022/03/20 03:41:39;;;;;;;20.48;10.15;;;-4.70;99.90;;;;;;4175795;28;20049;-48
2022/03/20 03:43:40;;;;;;;19.67;10.25;;;-4.70;99.90;;;;;;4172801;28;20455;-50
2022/03/20 03:45:43;;;;;;;23.35;10.68;;;-4.70;99.90;;;;;;4175035;28;20493;-50
2022/03/20 03:47:44;;;;;;;19.13;9.77;;;-4.80;99.90;;;;;;4172606;28;20055;-50
2022/03/20 03:49:45;;;;;;;20.70;9.68;;;-4.80;99.90;;;;;;4174071;28;20477;-52
2022/03/20 03:51:46;;;;;;;21.80;9.23;;;-4.70;99.90;;;;;;4172834;28;20098;-50
2022/03/20 03:53:48;;;;;;;17.58;10.15;;;-4.70;99.90;;;;;;4174306;28;20474;-53
2022/03/20 03:55:49;;;;;;;19.20;9.13;;;-4.80;99.90;;;;;;4173220;28;20045;-51
2022/03/20 03:57:51;;;;;;;17.48;9.15;;;-4.70;99.90;;;;;;4188469;28;20036;-63
2022/03/20 03:59:53;;;;;;;18.25;8.75;;;-4.70;99.90;;;;;;4189924;28;20878;-54
2022/03/20 04:01:55;;;;;;;21.42;9.73;;;-4.80;99.90;;;;;;4189477;28;20056;-57
2022/03/20 04:03:56;;;;;;;18.98;9.75;;;-4.80;99.90;;;;;;4189682;28;20029;-54
2022/03/20 04:06:04;;;;;;;19.67;9.60;;;-4.70;99.90;;;;;;4188873;28;20045;-53
2022/03/20 04:08:09;;;;;;;20.05;9.35;;;-4.70;99.90;;;;;;4189947;28;20484;-54
2022/03/20 04:10:10;;;;;;;20.60;10.73;;;-4.80;99.90;;;;;;4189528;28;20032;-50
2022/03/20 04:12:15;;;;;;;23.55;10.07;;;-4.80;99.90;;;;;;4190647;28;20036;-65
2022/03/20 04:14:16;;;;;;;24.73;11.05;;;-4.80;99.90;;;;;;4189132;28;20439;-53
2022/03/20 04:16:18;;;;;;;22.95;11.00;;;-4.80;99.90;;;;;;4190860;28;20177;-54
2022/03/20 04:18:20;;;;;;;23.33;11.60;;;-4.80;99.90;;;;;;4189499;28;20044;-55
2022/03/20 04:20:21;;;;;;;33.45;12.38;;;-4.80;99.90;;;;;;4189991;28;20082;-54
2022/03/20 04:22:23;;;;;;;27.63;12.60;;;-4.90;99.90;;;;;;4180730;28;20053;-54
2022/03/20 04:24:24;;;;;;;27.42;12.40;;;-4.90;99.90;;;;;;4174053;28;20041;-51
2022/03/20 04:26:25;;;;;;;35.47;12.23;;;-4.90;99.90;;;;;;4172551;28;20033;-53
2022/03/20 04:28:26;;;;;;;30.92;12.30;;;-4.90;99.90;;;;;;4173887;28;20507;-55
2022/03/20 04:30:28;;;;;;;28.45;12.25;;;-4.90;99.90;;;;;;4172002;28;20373;-57
2022/03/20 04:32:30;;;;;;;34.47;13.20;;;-4.90;99.90;;;;;;4173309;28;20079;-59
2022/03/20 04:34:31;;;;;;;28.27;12.50;;;-4.80;99.90;;;;;;4172828;28;20017;-55
2022/03/20 04:36:34;;;;;;;32.30;12.88;;;-4.70;99.90;;;;;;4172968;28;20029;-50
2022/03/20 04:38:38;;;;;;;31.60;12.18;;;-4.70;99.90;;;;;;4156995;28;20080;-50
2022/03/20 04:40:39;;;;;;;30.15;13.20;;;-4.60;99.90;;;;;;4155692;28;20445;-62
2022/03/20 04:42:40;;;;;;;26.20;13.35;;;-4.60;99.90;;;;;;4157180;28;20037;-57
2022/03/20 04:44:43;;;;;;;29.33;11.35;;;-4.60;99.90;;;;;;4175590;28;20106;-51
2022/03/20 04:46:45;;;;;;;36.50;13.10;;;-4.50;99.90;;;;;;4176007;28;20079;-48
2022/03/20 05:00:24;;;;;;;32.65;11.80;;;-4.10;99.90;;;;;;4188415;28;20094;-63
2022/03/20 05:02:25;;;;;;;28.17;11.55;;;-4.10;99.90;;;;;;4175610;28;20102;-61
2022/03/20 05:04:27;;;;;;;25.75;12.02;;;-4.10;99.90;;;;;;4176030;28;20029;-54
2022/03/20 05:06:28;;;;;;;28.83;12.15;;;-4.20;99.90;;;;;;4175354;28;20037;-53
2022/03/20 05:08:29;;;;;;;40.30;12.70;;;-4.30;99.90;;;;;;4176858;28;20095;-56
2022/03/20 05:15:11;;;;;;;27.52;12.30;;;-4.10;99.90;;;;;;4177799;28;20613;-53
2022/03/20 05:17:13;;;;;;;30.38;12.43;;;-3.90;99.90;;;;;;4192494;28;20029;-54
2022/03/20 05:19:14;;;;;;;28.27;12.15;;;-3.80;99.90;;;;;;4190879;28;20036;-55
2022/03/20 05:21:15;;;;;;;32.70;12.93;;;-3.60;99.90;;;;;;4190919;28;20493;-53
2022/03/20 05:23:17;;;;;;;28.40;12.38;;;-3.30;99.90;;;;;;4190861;28;20044;-63
2022/03/20 05:25:18;;;;;;;25.75;12.57;;;-3.20;99.90;;;;;;4192381;28;20045;-62
2022/03/20 05:27:19;;;;;;;25.35;11.65;;;-3.00;99.90;;;;;;4191029;28;20028;-59
2022/03/20 05:29:21;;;;;;;24.30;12.10;;;-3.00;99.90;;;;;;4191887;28;20481;-63
2022/03/20 05:31:23;;;;;;;33.10;13.13;;;-2.90;99.90;;;;;;4191362;28;20041;-58
2022/03/20 05:33:24;;;;;;;26.42;12.50;;;-2.60;99.90;;;;;;4191997;28;20373;-58
2022/03/20 05:35:25;;;;;;;33.72;12.98;;;-2.20;99.90;;;;;;4190915;28;20040;-55
2022/03/20 05:37:26;;;;;;;28.03;11.37;;;-1.40;99.90;;;;;;4191561;28;20088;-54
2022/03/20 05:39:28;;;;;;;26.30;12.20;;;-0.60;99.90;;;;;;4191535;28;20335;-54
2022/03/20 05:41:48;;;;;;;29.77;12.93;;;0.10;99.90;;;;;;4191340;28;20293;-55
2022/03/20 05:43:52;;;;;;;26.40;12.27;;;0.50;99.60;;;;;;4191132;28;20319;-53
2022/03/20 05:45:53;;;;;;;27.23;12.73;;;0.90;98.60;;;;;;4191616;28;20032;-57
2022/03/20 05:47:56;;;;;;;31.53;12.70;;;1.30;98.20;;;;;;4184339;28;20340;-63
2022/03/20 05:49:58;;;;;;;30.50;13.93;;;1.90;98.00;;;;;;4174873;28;20383;-64
2022/03/20 05:52:00;;;;;;;28.67;13.33;;;2.40;97.30;;;;;;4174800;28;20324;-55
2022/03/20 05:54:03;;;;;;;26.40;13.27;;;2.60;95.70;;;;;;4174058;28;20278;-61
2022/03/20 05:58:24;;;;;;;27.05;12.32;;;2.60;93.90;;;;;;4174139;28;20331;-58
2022/03/20 06:00:27;;;;;;;26.63;12.93;;;2.30;93.70;;;;;;4174958;28;20037;-60
2022/03/20 06:02:28;;;;;;;24.87;13.33;;;2.30;94.40;;;;;;4188852;28;20347;-57
2022/03/20 06:04:31;;;;;;;24.83;13.37;;;2.10;93.60;;;;;;4184464;28;20338;-55
2022/03/20 06:06:33;;;;;;;29.17;13.80;;;1.90;94.20;;;;;;4176148;28;20278;-64
2022/03/20 06:08:35;;;;;;;30.00;14.27;;;2.00;94.10;;;;;;4175568;28;20274;-62
2022/03/20 06:10:36;;;;;;;36.53;15.33;;;2.10;93.40;;;;;;4173975;28;20273;-57
2022/03/20 06:12:37;;;;;;;31.43;14.87;;;2.10;93.50;;;;;;4174889;28;20320;-64
2022/03/20 06:14:38;;;;;;;35.63;17.07;;;2.40;93.40;;;;;;4173580;28;20270;-52
2022/03/20 06:16:41;;;;;;;34.07;15.07;;;2.40;93.00;;;;;;4175005;28;20320;-54
2022/03/20 06:18:42;;;;;;;29.53;14.07;;;2.30;92.60;;;;;;4173485;28;20336;-62
2022/03/20 06:20:45;;;;;;;32.20;15.03;;;2.30;92.50;;;;;;4191015;28;20366;-65
2022/03/20 06:22:49;;;;;;;29.33;15.73;;;2.10;92.60;;;;;;4185509;28;20351;-55
2022/03/20 06:24:50;;;;;;;27.13;13.53;;;2.00;92.50;;;;;;4174111;28;20749;-58
2022/03/20 06:26:51;;;;;;;34.63;15.10;;;1.80;92.30;;;;;;4177209;28;20462;-52
2022/03/20 06:28:53;;;;;;;63.47;16.50;;;1.60;92.50;;;;;;4172672;28;20259;-58
2022/03/20 06:30:54;;;;;;;25.20;13.10;;;1.30;92.40;;;;;;4173834;28;20685;-55
2022/03/20 06:32:56;;;;;;;31.77;13.80;;;1.20;92.80;;;;;;4173177;28;20313;-53
2022/03/20 06:34:57;;;;;;;26.83;13.00;;;0.90;93.10;;;;;;4174102;28;20963;-58
2022/03/20 06:36:59;;;;;;;33.10;15.30;;;0.80;93.30;;;;;;4172651;28;20334;-57
2022/03/20 06:39:00;;;;;;;34.50;15.47;;;0.60;93.60;;;;;;4175114;28;20355;-61
2022/03/20 06:41:02;;;;;;;29.37;15.23;;;0.60;93.90;;;;;;4173391;28;20376;-62
2022/03/20 06:43:03;;;;;;;32.57;15.17;;;0.50;93.90;;;;;;4173967;28;20332;-55
2022/03/20 06:45:08;;;;;;;29.47;15.67;;;0.40;94.10;;;;;;4178525;28;20307;-62
2022/03/20 06:47:09;;;;;;;40.80;17.57;;;0.90;94.40;;;;;;4191055;28;20273;-55
2022/03/20 06:49:10;;;;;;;34.30;15.60;;;1.40;94.60;;;;;;4189639;28;20844;-61
2022/03/20 06:51:11;;;;;;;33.27;16.97;;;1.60;93.30;;;;;;4191784;28;20291;-65
2022/03/20 06:53:13;;;;;;;30.40;16.13;;;1.70;92.70;;;;;;4190262;28;20253;-56
2022/03/20 06:55:16;;;;;;;34.73;16.30;;;1.80;92.80;;;;;;4190631;28;20652;-56
2022/03/20 06:57:20;;;;;;;42.83;16.50;;;2.10;92.60;;;;;;4190280;28;20253;-57
2022/03/20 06:59:21;;;;;;;41.73;18.07;;;2.40;92.30;;;;;;4175803;28;20278;-63
2022/03/20 07:01:22;;;;;;;39.50;16.60;;;2.80;91.80;;;;;;4173869;28;20266;-56
2022/03/20 07:03:23;;;;;;;42.87;17.47;;;3.30;91.20;;;;;;4173187;28;20332;-55
2022/03/20 07:05:25;;;;;;;35.27;14.77;;;3.90;90.40;;;;;;4174599;28;20339;-55
2022/03/20 07:07:26;;;;;;;30.70;14.90;;;4.10;88.90;;;;;;4172038;28;20311;-58
2022/03/20 07:09:27;;;;;;;32.70;14.73;;;4.10;87.80;;;;;;4175432;28;20351;-54
2022/03/20 07:11:32;;;;;;;28.80;13.67;;;4.10;87.30;;;;;;4172969;28;20665;-54
2022/03/20 07:13:48;;;;;;;28.00;14.10;;;4.10;85.90;;;;;;4173675;28;20270;-67
2022/03/20 07:15:52;;;;;;;25.43;13.73;;;4.20;85.70;;;;;;4173040;28;21104;-55
2022/03/20 07:17:54;;;;;;;27.30;13.27;;;4.30;84.60;;;;;;4174246;28;20332;-63
2022/03/20 07:19:58;;;;;;;25.70;13.43;;;4.40;84.60;;;;;;4172923;28;21200;-70
2022/03/20 07:21:59;;;;;;;20.87;11.17;;;4.40;85.00;;;;;;4174108;28;20344;-62
2022/03/20 07:24:02;;;;;;;24.33;11.87;;;4.50;83.60;;;;;;4177162;28;20281;-59
2022/03/20 07:30:43;;;;;;;19.07;9.43;;;5.60;80.60;;;;;;4191197;28;20295;-51
2022/03/20 07:32:44;;;;;;;21.77;9.60;;;5.90;77.90;;;;;;4188763;28;20741;-57
2022/03/20 07:34:46;;;;;;;17.70;8.73;;;6.30;77.50;;;;;;4190111;28;20303;-52
2022/03/20 07:36:48;;;;;;;15.97;9.33;;;6.60;75.20;;;;;;4188622;28;20609;-56
2022/03/20 07:38:50;;;;;;;14.70;9.00;;;6.90;73.70;;;;;;4183536;28;20286;-57
2022/03/20 07:40:51;;;;;;;18.07;9.47;;;7.00;73.30;;;;;;4171656;28;20297;-57
2022/03/20 07:42:52;;;;;;;19.77;8.80;;;7.00;72.10;;;;;;4172450;28;20321;-50
2022/03/20 07:44:54;;;;;;;18.47;8.73;;;7.00;71.90;;;;;;4174198;28;20340;-55
2022/03/20 07:46:57;;;;;;;14.37;8.47;;;7.10;71.40;;;;;;4172796;28;20254;-67
2022/03/20 07:49:00;;;;;;;13.10;7.80;;;7.20;70.80;;;;;;4179853;28;20665;-57
2022/03/20 07:51:03;;;;;;;18.23;8.07;;;7.50;70.30;;;;;;4172772;28;20323;-54
2022/03/20 07:53:04;;;;;;;16.97;8.60;;;7.50;68.90;;;;;;4173552;28;20363;-57
2022/03/20 07:55:06;;;;;;;17.50;8.27;;;7.50;68.70;;;;;;4170499;28;21069;-57
2022/03/20 07:57:08;;;;;;;13.20;7.40;;;7.70;68.20;;;;;;4172767;28;20051;-58
2022/03/20 07:59:09;;;;;;;12.80;7.20;;;7.70;66.20;;;;;;4175453;28;20114;-54
2022/03/20 08:01:11;;;;;;;13.17;6.30;;;7.10;65.30;;;;;;4188891;28;20032;-58
2022/03/20 08:03:12;;;;;;;11.67;5.77;;;6.60;64.40;;;;;;4185091;28;20094;-58
2022/03/20 08:05:13;;;;;;;13.07;6.43;;;6.10;63.50;;;;;;4174007;28;20094;-57
2022/03/20 08:07:15;;;;;;;11.93;6.50;;;6.10;63.80;;;;;;4174798;28;20339;-55
2022/03/20 08:09:16;;;;;;;10.73;6.00;;;6.00;62.30;;;;;;4175939;28;20037;-55
2022/03/20 08:11:17;;;;;;;11.90;6.93;;;5.80;63.10;;;;;;4172342;28;20262;-61
2022/03/20 08:13:18;;;;;;;12.70;6.13;;;5.70;62.70;;;;;;4173363;28;20037;-59
2022/03/20 08:15:20;;;;;;;11.93;6.23;;;5.60;62.20;;;;;;4172364;28;20266;-60
2022/03/20 08:17:21;;;;;;;9.33;5.60;;;5.40;61.70;;;;;;4188073;28;20021;-62
2022/03/20 08:19:23;;;;;;;12.67;6.53;;;5.40;61.90;;;;;;4176351;28;20587;-63
2022/03/20 08:21:24;;;;;;;16.50;7.30;;;5.60;61.70;;;;;;4187092;28;20277;-60
2022/03/20 08:23:25;;;;;;;14.13;7.20;;;5.90;62.80;;;;;;4192462;28;20301;-61
2022/03/20 08:25:27;;;;;;;15.93;7.07;;;6.10;61.60;;;;;;4191055;28;20274;-57
2022/03/20 08:27:28;;;;;;;10.00;5.43;;;5.90;61.50;;;;;;4193055;28;20303;-61
2022/03/20 08:29:30;;;;;;;10.77;5.73;;;5.90;60.00;;;;;;4178204;28;20075;-59
2022/03/20 08:31:33;;;;;;;11.83;5.87;;;5.90;59.60;;;;;;4176720;28;20265;-60
2022/03/20 08:33:36;;;;;;;10.90;5.87;;;5.60;59.10;;;;;;4189603;28;20342;-59
2022/03/20 08:35:37;;;;;;;13.00;6.33;;;5.60;58.80;;;;;;4193434;28;20331;-60
2022/03/20 08:37:38;;;;;;;12.37;6.07;;;5.40;58.50;;;;;;4190007;28;20838;-62
2022/03/20 08:39:39;;;;;;;13.90;6.23;;;5.40;59.20;;;;;;4176772;28;20274;-57
2022/03/20 08:41:43;;;;;;;11.87;6.17;;;5.60;59.00;;;;;;4174897;28;20250;-59
2022/03/20 08:43:44;;;;;;;7.60;4.37;;;5.70;58.30;;;;;;4176138;28;20428;-60
2022/03/20 08:45:46;;;;;;;7.20;3.93;;;5.90;58.10;;;;;;4175012;28;20258;-60
2022/03/20 08:47:48;;;;;;;9.43;4.80;;;6.30;58.30;;;;;;4188587;28;20277;-57
2022/03/20 08:49:49;;;;;;;9.20;4.93;;;6.50;56.60;;;;;;4191746;28;20269;-58
2022/03/20 08:51:51;;;;;;;11.93;4.87;;;6.50;56.60;;;;;;4192045;28;20326;-61
2022/03/20 08:53:52;;;;;;;10.97;5.37;;;6.20;56.40;;;;;;4179327;28;20278;-56
2022/03/20 08:55:53;;;;;;;10.97;4.70;;;6.20;56.10;;;;;;4175325;28;20350;-56
2022/03/20 08:57:54;;;;;;;9.27;5.10;;;6.10;55.10;;;;;;4175695;28;20094;-60
2022/03/20 08:59:56;;;;;;;8.83;4.50;;;6.10;56.10;;;;;;4174864;28;20278;-60
2022/03/20 09:01:57;;;;;;;7.97;3.77;;;6.20;56.50;;;;;;4176088;28;20028;-56
2022/03/20 09:04:00;;;;;;;9.77;5.37;;;6.20;54.30;;;;;;4174987;28;20045;-55
2022/03/20 09:06:01;;;;;;;9.53;4.63;;;5.70;53.90;;;;;;4176171;28;20029;-58
2022/03/20 09:08:03;;;;;;;7.00;5.17;;;5.50;54.10;;;;;;4176270;28;20340;-58
2022/03/20 09:10:04;;;;;;;7.30;4.47;;;5.60;55.00;;;;;;4176329;28;20274;-61
2022/03/20 09:12:08;;;;;;;8.13;4.30;;;5.70;54.40;;;;;;4174305;28;20600;-58
2022/03/20 09:14:09;;;;;;;8.63;4.10;;;5.60;53.90;;;;;;4176271;28;20175;-59
2022/03/20 09:20:49;;;;;;;6.97;4.10;;;5.90;53.50;;;;;;4174574;28;20270;-62
2022/03/20 09:22:51;;;;;;;11.00;4.63;;;5.70;53.40;;;;;;4175626;28;20290;-57
2022/03/20 09:24:55;;;;;;;12.40;5.30;;;5.50;52.80;;;;;;4174439;28;20270;-57
2022/03/20 09:26:56;;;;;;;30.80;13.37;;;5.30;54.00;;;;;;4176197;28;20324;-57
2022/03/20 09:28:58;;;;;;;9.67;6.00;;;5.20;54.10;;;;;;4187402;28;21162;-55
2022/03/20 09:30:59;;;;;;;10.57;4.70;;;5.20;54.30;;;;;;4189499;28;20277;-59
2022/03/20 09:33:02;;;;;;;12.13;4.97;;;5.30;54.20;;;;;;4191160;28;20306;-56
2022/03/20 09:35:04;;;;;;;9.90;5.00;;;5.60;54.60;;;;;;4191272;28;20354;-58
2022/03/20 09:37:05;;;;;;;8.53;5.30;;;5.60;54.40;;;;;;4191735;28;20269;-57
2022/03/20 09:39:06;;;;;;;9.40;4.80;;;5.70;54.60;;;;;;4176316;28;20290;-57
2022/03/20 09:41:08;;;;;;;8.60;5.27;;;5.70;55.20;;;;;;4175827;28;20670;-58
2022/03/20 09:43:09;;;;;;;10.23;5.57;;;5.40;54.30;;;;;;4173809;28;20709;-56
2022/03/20 09:45:11;;;;;;;8.07;4.83;;;5.30;54.70;;;;;;4178899;28;20270;-57
2022/03/20 09:47:16;;;;;;;10.53;5.10;;;5.40;55.10;;;;;;4190203;28;20346;-64
2022/03/20 09:49:20;;;;;;;11.07;5.13;;;5.50;54.40;;;;;;4191682;28;20737;-58
2022/03/20 09:51:21;;;;;;;9.13;5.70;;;5.70;54.40;;;;;;4190313;28;20719;-55
2022/03/20 09:53:22;;;;;;;8.10;4.87;;;5.90;54.30;;;;;;4191822;28;20753;-58
2022/03/20 09:55:23;;;;;;;8.70;4.90;;;6.10;54.30;;;;;;4182550;28;20773;-56
2022/03/20 09:57:28;;;;;;;8.90;4.47;;;6.30;54.00;;;;;;4175021;28;20324;-56
2022/03/20 09:59:30;;;;;;;9.10;4.70;;;6.50;54.30;;;;;;4173577;28;21025;-56
2022/03/20 10:01:33;;;;;;;6.77;4.43;;;6.80;54.10;;;;;;4175219;28;20275;-57
2022/03/20 10:03:35;;;;;;;6.47;4.17;;;6.70;52.50;;;;;;4173879;28;20367;-57
2022/03/20 10:05:36;;;;;;;6.73;4.33;;;6.60;52.90;;;;;;4174275;28;20087;-58
2022/03/20 10:07:40;;;;;;;7.23;4.90;;;6.50;52.90;;;;;;4174104;28;20254;-55
2022/03/20 10:09:41;;;;;;;9.43;4.60;;;6.60;52.40;;;;;;4174350;28;20266;-57
2022/03/20 10:11:51;;;;;;;11.77;5.17;;;6.50;51.10;;;;;;4174896;28;20086;-53
2022/03/20 10:14:19;;;;;;;7.63;4.60;;;6.40;51.10;;;;;;4174248;28;20479;-55
2022/03/20 10:16:20;;;;;;;8.50;4.50;;;6.20;49.50;;;;;;4174365;28;20041;-56
2022/03/20 10:18:23;;;;;;;12.10;5.43;;;6.20;51.60;;;;;;4178432;28;20265;-58
2022/03/20 10:20:25;;;;;;;9.00;5.00;;;6.40;52.30;;;;;;4190651;28;20331;-57
2022/03/20 10:22:32;;;;;;;6.23;4.10;;;6.70;52.10;;;;;;4190542;28;20066;-57
2022/03/20 10:24:38;;;;;;;6.37;3.90;;;6.90;51.90;;;;;;4190935;28;20111;-56
2022/03/20 10:26:39;;;;;;;8.00;4.83;;;6.80;50.60;;;;;;4189903;28;20827;-60
2022/03/20 10:28:44;;;;;;;7.73;4.57;;;6.50;50.30;;;;;;4190841;28;20986;-59
2022/03/20 10:31:02;;;;;;;5.93;4.20;;;6.50;51.00;;;;;;4189629;28;20044;-57
2022/03/20 10:33:13;;;;;;;11.07;5.27;;;6.70;50.40;;;;;;4182467;28;20099;-58
2022/03/20 10:35:16;;;;;;;7.97;3.60;;;6.90;50.50;;;;;;4172937;28;20067;-58
2022/03/20 10:37:20;;;;;;;6.07;3.50;;;7.00;49.10;;;;;;4173979;28;20055;-60
2022/03/20 10:39:25;;;;;;;6.03;4.00;;;6.70;48.90;;;;;;4182022;28;20036;-56
2022/03/20 10:41:33;;;;;;;10.77;4.47;;;6.80;49.30;;;;;;4190747;28;20021;-56
2022/03/20 10:43:41;;;;;;;7.00;4.40;;;6.90;49.10;;;;;;4187694;28;20040;-58
2022/03/20 10:45:51;;;;;;;7.07;3.83;;;6.60;48.70;;;;;;4190951;28;20082;-58
2022/03/20 10:48:00;;;;;;;8.70;4.75;;;6.30;48.90;;;;;;4189335;28;20033;-58
2022/03/20 10:50:08;;;;;;;9.70;4.20;;;6.40;49.50;;;;;;4190276;28;20423;-57
2022/03/20 10:52:13;;;;;;;7.43;4.63;;;6.50;49.60;;;;;;4186797;28;20085;-59
2022/03/20 10:54:21;;;;;;;6.33;3.77;;;6.60;49.40;;;;;;4174407;28;20317;-58
2022/03/20 10:56:22;;;;;;;7.60;3.87;;;6.70;49.30;;;;;;4172470;28;20261;-58
2022/03/20 10:58:24;;;;;;;6.93;4.27;;;6.70;48.70;;;;;;4173843;28;20029;-57
2022/03/20 11:00:26;;;;;;;7.03;4.27;;;6.70;48.60;;;;;;4186395;28;20041;-59
2022/03/20 11:02:27;;;;;;;7.40;4.33;;;6.60;48.80;;;;;;4188927;28;20040;-58
2022/03/20 11:04:28;;;;;;;6.53;4.03;;;6.60;48.90;;;;;;4179926;28;20278;-57
2022/03/20 11:06:30;;;;;;;6.93;4.00;;;6.50;49.10;;;;;;4176084;28;20033;-60
2022/03/20 11:08:31;;;;;;;8.23;3.27;;;6.60;49.10;;;;;;4188869;28;20070;-57
2022/03/20 11:10:33;;;;;;;10.23;3.40;;;6.60;47.00;;;;;;4189822;28;20258;-56